Time;durP1;ratioP1;P1;durP2;ratioP2;P2;SDS_P1;SDS_P2;PMS_P1;PMS_P2;Temp;Humidity;BMP_temperature;BMP_pressure;BME280_temperature;BME280_humidity;BME280_pressure;Samples;Min_cycle;Max_cycle;Signal;HPM_P1;HPM_P2
2023/07/16 00:00:00;;;;;;;9.20;4.40;;;;;;;;;;110680;1256;22173;-82
2023/07/16 00:02:28;;;;;;;10.30;4.20;;;;;;;;;;110355;1276;22277;-82
2023/07/16 00:04:55;;;;;;;10.00;4.50;;;;;;;;;;110461;1276;22874;-82
2023/07/16 00:07:23;;;;;;;8.90;4.10;;;;;;;;;;110428;1276;23185;-82
2023/07/16 00:09:50;;;;;;;10.10;4.50;;;;;;;;;;110602;1256;22103;-82
2023/07/16 00:12:16;;;;;;;10.10;5.00;;;;;;;;;;110203;1278;22089;-81
2023/07/16 00:14:43;;;;;;;7.80;4.00;;;;;;;;;;110193;1278;22122;-82
2023/07/16 00:17:10;;;;;;;8.60;4.30;;;;;;;;;;110199;1278;22163;-83
2023/07/16 00:19:37;;;;;;;7.40;4.10;;;;;;;;;;110563;1258;22096;-82
2023/07/16 00:22:04;;;;;;;8.70;4.40;;;;;;;;;;110453;1276;22144;-82
2023/07/16 00:24:31;;;;;;;8.30;4.60;;;;;;;;;;110458;1276;22905;-82
2023/07/16 00:26:58;;;;;;;10.10;4.60;;;;;;;;;;110436;1276;22191;-82
2023/07/16 00:29:24;;;;;;;9.90;4.30;;;;;;;;;;110612;1259;22143;-81
2023/07/16 00:31:52;;;;;;;8.80;4.10;;;;;;;;;;110199;1277;22113;-82
2023/07/16 00:34:19;;;;;;;8.10;4.30;;;;;;;;;;110412;1278;22078;-82
2023/07/16 00:36:45;;;;;;;10.00;4.10;;;;;;;;;;110350;1272;22120;-82
2023/07/16 00:39:12;;;;;;;8.00;4.00;;;;;;;;;;110416;1253;22180;-82
2023/07/16 00:41:39;;;;;;;8.60;3.80;;;;;;;;;;110438;1276;22181;-82
2023/07/16 00:44:06;;;;;;;7.60;4.10;;;;;;;;;;110450;1262;22071;-82
2023/07/16 00:46:33;;;;;;;7.80;4.00;;;;;;;;;;110514;1276;22156;-81
2023/07/16 00:49:00;;;;;;;7.90;3.80;;;;;;;;;;110429;1276;22969;-82
2023/07/16 00:51:28;;;;;;;7.70;3.80;;;;;;;;;;110566;1260;22111;-83
2023/07/16 00:53:55;;;;;;;7.70;4.30;;;;;;;;;;110340;1278;22106;-82
2023/07/16 00:56:23;;;;;;;8.50;4.20;;;;;;;;;;110392;1278;23009;-83
2023/07/16 00:58:50;;;;;;;8.40;3.90;;;;;;;;;;110372;1278;22853;-83
2023/07/16 01:01:17;;;;;;;9.00;4.00;;;;;;;;;;110689;1256;22105;-83
2023/07/16 01:03:45;;;;;;;7.80;4.00;;;;;;;;;;110462;1277;22118;-83
2023/07/16 01:06:22;;;;;;;6.70;3.50;;;;;;;;;;110221;1277;22114;-82
2023/07/16 01:08:53;;;;;;;8.60;3.70;;;;;;;;;;110399;1277;22805;-82
2023/07/16 01:11:21;;;;;;;6.60;3.40;;;;;;;;;;110573;1256;22413;-82
2023/07/16 01:13:49;;;;;;;7.10;3.70;;;;;;;;;;110302;1278;21989;-82
2023/07/16 01:16:23;;;;;;;7.90;3.70;;;;;;;;;;110386;1278;22089;-83
2023/07/16 01:18:51;;;;;;;7.60;3.40;;;;;;;;;;110287;1278;22113;-82
2023/07/16 01:21:22;;;;;;;10.20;4.30;;;;;;;;;;110568;1255;22110;-82
2023/07/16 01:24:08;;;;;;;8.40;3.80;;;;;;;;;;110225;1277;22165;-82
2023/07/16 01:26:45;;;;;;;11.00;3.70;;;;;;;;;;110407;1277;22811;-82
2023/07/16 01:29:19;;;;;;;7.50;3.80;;;;;;;;;;110416;1271;22847;-82
2023/07/16 01:31:46;;;;;;;7.90;3.70;;;;;;;;;;110634;1256;22652;-82
2023/07/16 01:34:14;;;;;;;11.20;3.80;;;;;;;;;;110282;1278;22078;-82
2023/07/16 01:36:42;;;;;;;7.00;3.70;;;;;;;;;;110145;1278;22067;-81
2023/07/16 01:39:09;;;;;;;7.90;3.80;;;;;;;;;;110284;1278;22768;-82
2023/07/16 01:41:37;;;;;;;9.10;3.40;;;;;;;;;;110663;1256;22129;-82
2023/07/16 01:44:05;;;;;;;10.00;3.70;;;;;;;;;;110396;1277;22775;-82
2023/07/16 01:46:32;;;;;;;7.90;3.50;;;;;;;;;;110225;1277;22292;-82
2023/07/16 01:49:00;;;;;;;7.20;3.60;;;;;;;;;;110418;1277;22934;-82
2023/07/16 01:51:28;;;;;;;7.30;3.00;;;;;;;;;;110550;1256;22149;-82
2023/07/16 01:53:56;;;;;;;6.90;3.10;;;;;;;;;;110289;1278;22120;-82
2023/07/16 01:56:25;;;;;;;7.20;3.40;;;;;;;;;;110369;1278;22959;-82
2023/07/16 01:58:54;;;;;;;8.80;3.60;;;;;;;;;;110216;1278;22781;-81
2023/07/16 02:01:24;;;;;;;7.10;3.60;;;;;;;;;;110250;1259;22138;-81
2023/07/16 02:03:53;;;;;;;7.10;3.40;;;;;;;;;;110375;1278;22748;-82
2023/07/16 02:06:22;;;;;;;9.10;3.60;;;;;;;;;;110360;1278;22216;-81
2023/07/16 02:08:52;;;;;;;7.60;3.60;;;;;;;;;;110462;1277;22131;-81
2023/07/16 02:11:22;;;;;;;9.10;3.90;;;;;;;;;;110361;1260;22113;-81
2023/07/16 02:13:49;;;;;;;8.10;3.70;;;;;;;;;;110359;1268;22099;-82
2023/07/16 02:16:18;;;;;;;8.60;3.20;;;;;;;;;;110201;1278;22140;-81
2023/07/16 02:18:47;;;;;;;6.90;3.80;;;;;;;;;;110217;1275;22583;-82
2023/07/16 02:21:17;;;;;;;6.50;3.40;;;;;;;;;;110319;1254;22154;-81
2023/07/16 02:23:46;;;;;;;8.70;4.30;;;;;;;;;;110366;1278;22804;-81
2023/07/16 02:26:14;;;;;;;9.70;4.10;;;;;;;;;;110480;1278;22108;-81
2023/07/16 02:28:43;;;;;;;8.90;3.90;;;;;;;;;;110181;1278;22847;-81
2023/07/16 02:31:12;;;;;;;12.20;3.90;;;;;;;;;;110211;1256;22362;-80
2023/07/16 02:33:43;;;;;;;8.80;3.60;;;;;;;;;;110145;1278;22194;-81
2023/07/16 02:36:11;;;;;;;7.00;3.40;;;;;;;;;;110183;1278;22097;-82
2023/07/16 02:38:40;;;;;;;13.90;4.20;;;;;;;;;;110356;1278;22093;-82
2023/07/16 02:41:10;;;;;;;8.20;4.10;;;;;;;;;;110377;1273;22094;-81
2023/07/16 02:43:38;;;;;;;8.50;4.10;;;;;;;;;;110610;1258;22106;-82
2023/07/16 02:46:08;;;;;;;8.40;4.10;;;;;;;;;;110450;1278;22816;-81
2023/07/16 02:48:37;;;;;;;8.70;4.50;;;;;;;;;;110343;1278;22742;-81
2023/07/16 02:51:07;;;;;;;11.90;4.10;;;;;;;;;;110465;1278;22324;-81
2023/07/16 03:04:05;;;;;;;10.50;3.90;;;;;;;;;;103973;1293;548318;-83
2023/07/16 03:06:31;;;;;;;8.90;3.70;;;;;;;;;;106450;1285;25240;-89
2023/07/16 03:08:57;;;;;;;7.60;3.70;;;;;;;;;;106404;1285;22533;-83
2023/07/16 03:11:23;;;;;;;11.00;4.10;;;;;;;;;;107097;1274;22523;-87
2023/07/16 03:13:49;;;;;;;15.60;4.40;;;;;;;;;;106968;1259;24198;-85
2023/07/16 03:16:15;;;;;;;10.00;3.80;;;;;;;;;;104577;1274;3165397;-81
2023/07/16 03:18:42;;;;;;;10.50;3.60;;;;;;;;;;107092;1274;22581;-83
2023/07/16 03:21:08;;;;;;;7.30;3.40;;;;;;;;;;107135;1274;22526;-83
2023/07/16 03:23:34;;;;;;;8.20;3.90;;;;;;;;;;107288;1272;23761;-83
2023/07/16 03:26:00;;;;;;;8.50;3.80;;;;;;;;;;107234;1272;22525;-82
2023/07/16 03:28:26;;;;;;;8.20;3.90;;;;;;;;;;107211;1271;22516;-88
2023/07/16 03:30:53;;;;;;;9.90;3.20;;;;;;;;;;107395;1271;25377;-85
2023/07/16 03:33:20;;;;;;;6.70;3.50;;;;;;;;;;107202;1253;22533;-85
2023/07/16 03:35:48;;;;;;;12.00;3.50;;;;;;;;;;107197;1274;22527;-88
2023/07/16 03:38:14;;;;;;;8.30;3.30;;;;;;;;;;107165;1273;25580;-82
2023/07/16 03:40:42;;;;;;;8.00;3.30;;;;;;;;;;107160;1273;22670;-83
2023/07/16 03:43:08;;;;;;;7.60;3.20;;;;;;;;;;107170;1272;24305;-79
2023/07/16 03:45:35;;;;;;;8.90;3.10;;;;;;;;;;107279;1253;22524;-86
2023/07/16 03:48:01;;;;;;;7.10;3.40;;;;;;;;;;107262;1271;23046;-80
2023/07/16 03:50:27;;;;;;;8.60;3.30;;;;;;;;;;107422;1271;22521;-89
2023/07/16 03:52:55;;;;;;;10.80;3.00;;;;;;;;;;107510;1266;22974;-85
2023/07/16 03:55:21;;;;;;;9.20;3.00;;;;;;;;;;107173;1256;22524;-87
2023/07/16 03:57:49;;;;;;;6.60;2.90;;;;;;;;;;107113;1273;22551;-85
2023/07/16 04:00:15;;;;;;;7.00;3.00;;;;;;;;;;107042;1273;24181;-84
2023/07/16 04:02:41;;;;;;;6.80;2.80;;;;;;;;;;107184;1273;24006;-83
2023/07/16 04:05:10;;;;;;;6.10;2.80;;;;;;;;;;107323;1254;22527;-86
2023/07/16 04:07:36;;;;;;;5.70;2.60;;;;;;;;;;107303;1271;25340;-86
2023/07/16 04:10:02;;;;;;;5.70;2.60;;;;;;;;;;107343;1272;25372;-83
2023/07/16 04:12:28;;;;;;;7.10;2.70;;;;;;;;;;107442;1271;22627;-88
2023/07/16 04:14:56;;;;;;;10.10;2.60;;;;;;;;;;107312;1272;25327;-89
2023/07/16 04:17:22;;;;;;;9.00;2.90;;;;;;;;;;107147;1273;22778;-87
2023/07/16 04:19:48;;;;;;;8.30;3.30;;;;;;;;;;107267;1273;22543;-82
2023/07/16 04:22:14;;;;;;;6.60;2.90;;;;;;;;;;107126;1273;22577;-82
2023/07/16 04:24:40;;;;;;;6.30;2.50;;;;;;;;;;107147;1253;24400;-86
2023/07/16 04:27:06;;;;;;;7.70;2.80;;;;;;;;;;107421;1272;22483;-84
2023/07/16 04:29:32;;;;;;;6.10;2.40;;;;;;;;;;107409;1272;25329;-86
2023/07/16 04:31:58;;;;;;;6.50;2.60;;;;;;;;;;107317;1272;22635;-84
2023/07/16 04:34:24;;;;;;;5.20;2.30;;;;;;;;;;107360;1250;22514;-83
2023/07/16 04:36:51;;;;;;;9.00;2.90;;;;;;;;;;107005;1273;24333;-85
2023/07/16 04:39:17;;;;;;;7.00;2.80;;;;;;;;;;107121;1273;22514;-82
2023/07/16 04:41:43;;;;;;;7.60;3.00;;;;;;;;;;107182;1273;22763;-86
2023/07/16 04:44:09;;;;;;;5.80;2.70;;;;;;;;;;107061;1273;22597;-84
2023/07/16 04:46:35;;;;;;;6.50;2.70;;;;;;;;;;107430;1253;24240;-83
2023/07/16 04:49:01;;;;;;;6.10;2.60;;;;;;;;;;107273;1271;25474;-83
2023/07/16 04:51:27;;;;;;;6.50;2.80;;;;;;;;;;107401;1272;22491;-82
2023/07/16 04:53:53;;;;;;;6.10;2.40;;;;;;;;;;107231;1272;22534;-90
2023/07/16 04:56:19;;;;;;;6.10;2.70;;;;;;;;;;107224;1254;22527;-82
2023/07/16 04:58:45;;;;;;;7.00;2.80;;;;;;;;;;107164;1273;25322;-86
2023/07/16 05:01:11;;;;;;;6.80;2.60;;;;;;;;;;107127;1273;22652;-82
2023/07/16 05:03:37;;;;;;;8.00;2.80;;;;;;;;;;107169;1273;23315;-84
2023/07/16 05:06:04;;;;;;;6.60;2.80;;;;;;;;;;107316;1272;22544;-86
2023/07/16 05:08:30;;;;;;;6.30;2.50;;;;;;;;;;107445;1272;22635;-83
2023/07/16 05:10:56;;;;;;;5.20;2.30;;;;;;;;;;107413;1272;24350;-89
2023/07/16 05:13:22;;;;;;;7.40;2.70;;;;;;;;;;107483;1272;22643;-83
2023/07/16 05:15:48;;;;;;;10.50;2.50;;;;;;;;;;107311;1263;22490;-83
2023/07/16 05:18:15;;;;;;;5.40;2.00;;;;;;;;;;106976;1272;24602;-84
2023/07/16 05:20:41;;;;;;;6.00;2.10;;;;;;;;;;107133;1273;24256;-86
2023/07/16 05:23:09;;;;;;;6.20;2.00;;;;;;;;;;107136;1272;25390;-83
2023/07/16 05:25:35;;;;;;;5.70;2.30;;;;;;;;;;107318;1265;22773;-87
2023/07/16 05:28:01;;;;;;;6.40;2.20;;;;;;;;;;107306;1272;22624;-82
2023/07/16 05:30:27;;;;;;;6.10;2.30;;;;;;;;;;107311;1272;24192;-88
2023/07/16 05:32:53;;;;;;;5.40;2.10;;;;;;;;;;107443;1248;22657;-82
2023/07/16 05:35:19;;;;;;;4.90;1.90;;;;;;;;;;107262;1272;22522;-81
2023/07/16 05:37:45;;;;;;;6.30;1.90;;;;;;;;;;107145;1256;22517;-81
2023/07/16 05:40:11;;;;;;;7.50;1.60;;;;;;;;;;107135;1272;23788;-84
2023/07/16 05:42:37;;;;;;;5.90;1.60;;;;;;;;;;107126;1273;25324;-85
2023/07/16 05:45:03;;;;;;;3.50;1.50;;;;;;;;;;107220;1273;22625;-84
2023/07/16 05:47:29;;;;;;;4.40;1.40;;;;;;;;;;107239;1257;22523;-84
2023/07/16 05:49:55;;;;;;;4.60;1.80;;;;;;;;;;107435;1272;25401;-87
2023/07/16 05:52:21;;;;;;;4.20;1.80;;;;;;;;;;107444;1272;22521;-84
2023/07/16 05:54:47;;;;;;;5.00;2.00;;;;;;;;;;107304;1272;22517;-88
2023/07/16 05:57:14;;;;;;;6.70;1.70;;;;;;;;;;107129;1273;23233;-89
2023/07/16 05:59:40;;;;;;;4.10;1.70;;;;;;;;;;107192;1273;22609;-83
2023/07/16 06:02:06;;;;;;;4.50;2.00;;;;;;;;;;107225;1271;24210;-86
2023/07/16 06:04:32;;;;;;;4.30;2.00;;;;;;;;;;107034;1273;24244;-88
2023/07/16 06:06:58;;;;;;;6.00;2.00;;;;;;;;;;107062;1257;22643;-89
2023/07/16 06:09:24;;;;;;;6.50;1.80;;;;;;;;;;107265;1272;22638;-85
2023/07/16 06:11:50;;;;;;;5.30;1.80;;;;;;;;;;107221;1272;23907;-83
2023/07/16 06:14:17;;;;;;;4.90;2.00;;;;;;;;;;107223;1272;22760;-86
2023/07/16 06:16:43;;;;;;;5.70;1.80;;;;;;;;;;107238;1263;22534;-86
2023/07/16 06:19:09;;;;;;;5.60;1.80;;;;;;;;;;106968;1273;25433;-81
2023/07/16 06:21:35;;;;;;;5.90;1.70;;;;;;;;;;107189;1273;22547;-88
2023/07/16 06:24:01;;;;;;;4.70;1.40;;;;;;;;;;107238;1273;25306;-80
2023/07/16 06:26:27;;;;;;;6.40;1.70;;;;;;;;;;107163;1254;22515;-82
2023/07/16 06:28:53;;;;;;;6.40;1.70;;;;;;;;;;107257;1273;25274;-82
2023/07/16 06:31:19;;;;;;;5.10;1.80;;;;;;;;;;107286;1272;24233;-86
2023/07/16 06:33:49;;;;;;;3.90;1.50;;;;;;;;;;107236;1272;22562;-88
2023/07/16 06:36:15;;;;;;;5.10;1.60;;;;;;;;;;107267;1272;25281;-84
2023/07/16 06:38:41;;;;;;;4.40;1.90;;;;;;;;;;107158;1256;25236;-83
2023/07/16 06:41:07;;;;;;;5.00;1.90;;;;;;;;;;107132;1273;22537;-87
2023/07/16 06:43:33;;;;;;;3.70;1.30;;;;;;;;;;107105;1273;22531;-83
2023/07/16 06:45:59;;;;;;;4.70;1.50;;;;;;;;;;107091;1273;22530;-83
2023/07/16 06:48:25;;;;;;;4.50;1.70;;;;;;;;;;107214;1272;24194;-88
2023/07/16 06:50:52;;;;;;;3.20;1.50;;;;;;;;;;107189;1272;22543;-85
2023/07/16 06:53:18;;;;;;;3.30;1.50;;;;;;;;;;107338;1272;24243;-84
2023/07/16 06:55:44;;;;;;;6.00;1.70;;;;;;;;;;107315;1269;24462;-85
2023/07/16 06:58:10;;;;;;;4.40;1.80;;;;;;;;;;107150;1255;24365;-82
2023/07/16 07:00:36;;;;;;;6.40;1.80;;;;;;;;;;107118;1273;22611;-87
2023/07/16 07:03:03;;;;;;;5.00;1.60;;;;;;;;;;107179;1273;24190;-86
2023/07/16 07:05:29;;;;;;;3.40;1.60;;;;;;;;;;107123;1273;22558;-84
2023/07/16 07:07:55;;;;;;;3.70;1.60;;;;;;;;;;107213;1253;22523;-86
2023/07/16 07:10:22;;;;;;;3.80;1.60;;;;;;;;;;107265;1272;22575;-86
2023/07/16 07:12:48;;;;;;;4.60;1.70;;;;;;;;;;107315;1272;22633;-82
2023/07/16 07:15:14;;;;;;;3.30;1.60;;;;;;;;;;107308;1272;24303;-88
2023/07/16 07:17:42;;;;;;;3.90;1.80;;;;;;;;;;107245;1250;25321;-83
2023/07/16 07:20:08;;;;;;;4.90;1.90;;;;;;;;;;106980;1273;24260;-84
2023/07/16 07:22:35;;;;;;;3.70;1.70;;;;;;;;;;107192;1273;23122;-83
2023/07/16 07:25:01;;;;;;;3.90;1.70;;;;;;;;;;107156;1273;22530;-81
2023/07/16 07:27:27;;;;;;;5.80;1.70;;;;;;;;;;106949;1251;23938;-79
2023/07/16 07:29:55;;;;;;;5.40;2.00;;;;;;;;;;107282;1263;24336;-88
2023/07/16 07:32:21;;;;;;;5.60;1.90;;;;;;;;;;107221;1273;22530;-84
2023/07/16 07:34:48;;;;;;;4.40;1.70;;;;;;;;;;107205;1272;22534;-88
2023/07/16 07:37:14;;;;;;;3.20;1.30;;;;;;;;;;107250;1272;22527;-87
2023/07/16 07:39:40;;;;;;;4.90;1.60;;;;;;;;;;107178;1254;24037;-84
2023/07/16 07:42:07;;;;;;;4.80;1.70;;;;;;;;;;107123;1273;22459;-87
2023/07/16 07:44:34;;;;;;;5.10;1.80;;;;;;;;;;107110;1273;22534;-87
2023/07/16 07:47:00;;;;;;;3.50;1.70;;;;;;;;;;107088;1273;22523;-89
2023/07/16 07:49:26;;;;;;;3.80;1.60;;;;;;;;;;107170;1263;25309;-85
2023/07/16 07:51:52;;;;;;;5.50;2.00;;;;;;;;;;107196;1272;25262;-83
2023/07/16 07:54:18;;;;;;;4.00;1.80;;;;;;;;;;107276;1272;24201;-83
2023/07/16 07:56:45;;;;;;;3.40;1.60;;;;;;;;;;107219;1272;26614;-86
2023/07/16 07:59:11;;;;;;;6.10;1.60;;;;;;;;;;107189;1254;22546;-84
2023/07/16 08:01:37;;;;;;;3.70;1.70;;;;;;;;;;107052;1273;25228;-87
2023/07/16 08:04:03;;;;;;;5.00;2.10;;;;;;;;;;106964;1273;24205;-84
2023/07/16 08:06:29;;;;;;;3.90;1.90;;;;;;;;;;107188;1273;26449;-85
2023/07/16 08:08:55;;;;;;;4.30;2.00;;;;;;;;;;107017;1263;24349;-87
2023/07/16 08:11:21;;;;;;;5.40;1.80;;;;;;;;;;107065;1272;25343;-83
2023/07/16 08:13:49;;;;;;;4.40;1.90;;;;;;;;;;107181;1272;22527;-85
2023/07/16 08:16:15;;;;;;;5.40;1.90;;;;;;;;;;107213;1272;22636;-84
2023/07/16 08:18:41;;;;;;;4.40;1.90;;;;;;;;;;107263;1256;24216;-82
2023/07/16 08:21:07;;;;;;;7.10;1.90;;;;;;;;;;106960;1273;22555;-89
2023/07/16 08:23:33;;;;;;;5.90;1.90;;;;;;;;;;107058;1273;22639;-85
2023/07/16 08:25:59;;;;;;;3.90;1.80;;;;;;;;;;107227;1273;24188;-82
2023/07/16 08:28:25;;;;;;;5.40;2.00;;;;;;;;;;107201;1273;24208;-87
2023/07/16 08:30:51;;;;;;;5.30;2.00;;;;;;;;;;107090;1267;24349;-86
2023/07/16 08:33:17;;;;;;;6.00;1.90;;;;;;;;;;107324;1272;24266;-87
2023/07/16 08:35:43;;;;;;;4.70;2.10;;;;;;;;;;107306;1273;23560;-83
2023/07/16 08:38:10;;;;;;;3.90;1.90;;;;;;;;;;107301;1272;24331;-82
2023/07/16 08:40:39;;;;;;;5.10;1.90;;;;;;;;;;107111;1255;22530;-82
2023/07/16 08:43:06;;;;;;;4.60;2.00;;;;;;;;;;107182;1273;24306;-88
2023/07/16 08:45:36;;;;;;;6.00;2.00;;;;;;;;;;107216;1273;22525;-86
2023/07/16 08:48:02;;;;;;;5.00;1.80;;;;;;;;;;106942;1273;24340;-81
2023/07/16 08:50:28;;;;;;;5.70;2.20;;;;;;;;;;107187;1272;22562;-81
2023/07/16 08:52:55;;;;;;;5.70;2.00;;;;;;;;;;107285;1272;22611;-85
2023/07/16 08:55:21;;;;;;;8.00;2.10;;;;;;;;;;107168;1272;22819;-85
2023/07/16 08:57:47;;;;;;;5.40;2.10;;;;;;;;;;107124;1272;24186;-82
2023/07/16 09:00:14;;;;;;;7.80;2.40;;;;;;;;;;107207;1256;25403;-86
2023/07/16 09:02:41;;;;;;;5.10;2.50;;;;;;;;;;107057;1273;22534;-88
2023/07/16 09:05:09;;;;;;;6.40;2.60;;;;;;;;;;107076;1273;22555;-88
2023/07/16 09:07:37;;;;;;;5.20;2.20;;;;;;;;;;107130;1273;22660;-86
2023/07/16 09:10:23;;;;;;;6.10;2.70;;;;;;;;;;107061;1251;24345;-82
2023/07/16 09:12:53;;;;;;;5.00;2.50;;;;;;;;;;107032;1273;22669;-85
2023/07/16 09:15:19;;;;;;;5.70;2.60;;;;;;;;;;107242;1251;22572;-82
2023/07/16 09:17:49;;;;;;;6.40;2.40;;;;;;;;;;107078;1254;22565;-82
2023/07/16 09:20:16;;;;;;;6.50;2.30;;;;;;;;;;107146;1255;22488;-88
2023/07/16 09:22:43;;;;;;;5.30;2.10;;;;;;;;;;107068;1274;22575;-86
2023/07/16 09:25:10;;;;;;;5.30;2.40;;;;;;;;;;107161;1274;24335;-82
2023/07/16 09:27:36;;;;;;;5.60;2.60;;;;;;;;;;107145;1274;24365;-86
2023/07/16 09:30:06;;;;;;;6.00;2.60;;;;;;;;;;106906;1251;22510;-83
2023/07/16 09:32:37;;;;;;;5.20;2.70;;;;;;;;;;107033;1273;25392;-82
2023/07/16 09:35:09;;;;;;;4.90;2.50;;;;;;;;;;107316;1273;23283;-86
2023/07/16 09:37:36;;;;;;;4.80;2.40;;;;;;;;;;107570;1273;22530;-84
2023/07/16 09:40:03;;;;;;;5.40;2.70;;;;;;;;;;107272;1273;22909;-82
2023/07/16 09:42:29;;;;;;;7.40;2.50;;;;;;;;;;106944;1274;22527;-83
2023/07/16 09:44:56;;;;;;;5.90;2.40;;;;;;;;;;106988;1270;25385;-83
2023/07/16 09:47:22;;;;;;;4.90;2.20;;;;;;;;;;106892;1274;22638;-86
2023/07/16 09:49:48;;;;;;;5.50;2.30;;;;;;;;;;106898;1274;22539;-85
2023/07/16 09:52:14;;;;;;;4.30;1.70;;;;;;;;;;107041;1255;24246;-83
2023/07/16 09:54:41;;;;;;;4.30;1.70;;;;;;;;;;107215;1273;25329;-80
2023/07/16 09:57:08;;;;;;;3.40;1.60;;;;;;;;;;107191;1273;22804;-87
2023/07/16 09:59:34;;;;;;;4.90;1.90;;;;;;;;;;107157;1273;22546;-83
2023/07/16 10:02:00;;;;;;;3.90;1.50;;;;;;;;;;106962;1257;25271;-80
2023/07/16 10:04:37;;;;;;;4.20;1.80;;;;;;;;;;107152;1274;22547;-88
2023/07/16 10:07:04;;;;;;;3.50;1.60;;;;;;;;;;107045;1274;22620;-86
2023/07/16 10:09:41;;;;;;;2.90;1.40;;;;;;;;;;107131;1274;22452;-82
2023/07/16 10:12:18;;;;;;;4.50;1.70;;;;;;;;;;107222;1256;25321;-83
2023/07/16 10:14:45;;;;;;;4.10;1.80;;;;;;;;;;107125;1273;22693;-86
2023/07/16 10:17:15;;;;;;;3.90;1.60;;;;;;;;;;107214;1273;22527;-82
2023/07/16 10:19:50;;;;;;;3.60;1.60;;;;;;;;;;107285;1268;24358;-85
2023/07/16 10:22:30;;;;;;;3.80;1.70;;;;;;;;;;106986;1258;26599;-89
2023/07/16 10:24:56;;;;;;;3.00;1.70;;;;;;;;;;107106;1275;22531;-88
2023/07/16 10:27:27;;;;;;;5.10;2.10;;;;;;;;;;107162;1275;24236;-84
2023/07/16 10:29:54;;;;;;;4.20;1.90;;;;;;;;;;106930;1275;22658;-88
2023/07/16 10:32:21;;;;;;;4.10;2.00;;;;;;;;;;107130;1273;23867;-83
2023/07/16 10:34:47;;;;;;;3.70;1.80;;;;;;;;;;107245;1273;24315;-88
2023/07/16 10:37:13;;;;;;;5.30;2.00;;;;;;;;;;107318;1273;22523;-87
2023/07/16 10:39:52;;;;;;;5.60;2.00;;;;;;;;;;107178;1273;22524;-85
2023/07/16 10:42:19;;;;;;;5.90;2.00;;;;;;;;;;107095;1258;22537;-84
2023/07/16 10:44:48;;;;;;;4.60;2.00;;;;;;;;;;107094;1274;25345;-86
2023/07/16 10:47:22;;;;;;;6.00;2.20;;;;;;;;;;106966;1274;25521;-86
2023/07/16 10:49:49;;;;;;;3.70;2.00;;;;;;;;;;107130;1274;22530;-86
2023/07/16 10:52:15;;;;;;;4.50;1.80;;;;;;;;;;107196;1254;22534;-89
2023/07/16 10:54:41;;;;;;;6.50;1.90;;;;;;;;;;107253;1273;25237;-85
2023/07/16 10:57:07;;;;;;;3.70;1.80;;;;;;;;;;107142;1273;24284;-82
2023/07/16 10:59:36;;;;;;;3.90;1.90;;;;;;;;;;107183;1273;22501;-84
2023/07/16 11:02:02;;;;;;;4.40;1.60;;;;;;;;;;107187;1254;22537;-82
2023/07/16 11:04:33;;;;;;;4.80;1.80;;;;;;;;;;107053;1273;25291;-85
2023/07/16 11:06:59;;;;;;;3.50;1.60;;;;;;;;;;106917;1273;24367;-84
2023/07/16 11:09:25;;;;;;;3.30;1.80;;;;;;;;;;107138;1274;22685;-86
2023/07/16 11:11:51;;;;;;;4.40;1.70;;;;;;;;;;107080;1274;23941;-81
2023/07/16 11:14:17;;;;;;;4.70;1.80;;;;;;;;;;107181;1257;24239;-89
2023/07/16 11:16:44;;;;;;;5.10;1.70;;;;;;;;;;107095;1273;24361;-82
2023/07/16 11:19:10;;;;;;;4.50;2.00;;;;;;;;;;107184;1273;22992;-82
2023/07/16 11:21:36;;;;;;;5.40;2.00;;;;;;;;;;107262;1273;22539;-88
2023/07/16 11:24:09;;;;;;;3.40;1.70;;;;;;;;;;107112;1274;24826;-83
2023/07/16 11:26:35;;;;;;;3.30;1.60;;;;;;;;;;106976;1274;24264;-86
2023/07/16 11:29:11;;;;;;;4.70;1.90;;;;;;;;;;107102;1274;24415;-84
2023/07/16 11:31:39;;;;;;;3.90;1.60;;;;;;;;;;106948;1274;22646;-86
2023/07/16 11:34:07;;;;;;;6.50;1.90;;;;;;;;;;107124;1256;22527;-81
2023/07/16 11:36:33;;;;;;;4.60;2.00;;;;;;;;;;107079;1273;22624;-88
2023/07/16 11:39:02;;;;;;;3.50;1.70;;;;;;;;;;107265;1273;22528;-83
2023/07/16 11:41:28;;;;;;;4.40;1.90;;;;;;;;;;107256;1273;24250;-82
2023/07/16 11:43:58;;;;;;;3.50;1.70;;;;;;;;;;107182;1256;23902;-88
2023/07/16 11:46:24;;;;;;;3.30;1.60;;;;;;;;;;106933;1274;24183;-84
2023/07/16 11:48:50;;;;;;;3.60;1.60;;;;;;;;;;107108;1274;25641;-83
2023/07/16 11:51:16;;;;;;;5.40;1.90;;;;;;;;;;106932;1274;24250;-84
2023/07/16 11:53:42;;;;;;;5.00;1.70;;;;;;;;;;107156;1263;24195;-83
2023/07/16 11:56:09;;;;;;;4.10;1.70;;;;;;;;;;107302;1273;24354;-86
2023/07/16 11:58:35;;;;;;;6.40;2.10;;;;;;;;;;107260;1273;23324;-85
2023/07/16 12:01:02;;;;;;;3.50;1.70;;;;;;;;;;107166;1273;22544;-83
2023/07/16 12:03:28;;;;;;;3.90;1.90;;;;;;;;;;107036;1254;25325;-83
2023/07/16 12:05:54;;;;;;;3.60;1.60;;;;;;;;;;106901;1275;25285;-87
2023/07/16 12:08:21;;;;;;;5.70;2.00;;;;;;;;;;106965;1275;22539;-84
2023/07/16 12:10:47;;;;;;;4.60;2.00;;;;;;;;;;106946;1275;24228;-84
2023/07/16 12:13:13;;;;;;;4.20;1.70;;;;;;;;;;107125;1273;21788;-82
2023/07/16 12:15:42;;;;;;;3.80;1.80;;;;;;;;;;106998;1264;22649;-86
2023/07/16 12:18:08;;;;;;;4.00;1.70;;;;;;;;;;107221;1273;25281;-87
2023/07/16 12:20:34;;;;;;;3.70;1.70;;;;;;;;;;107136;1273;22537;-85
2023/07/16 12:23:00;;;;;;;4.80;1.80;;;;;;;;;;107145;1273;22525;-83
2023/07/16 12:25:26;;;;;;;4.40;2.20;;;;;;;;;;106918;1275;22552;-88
2023/07/16 12:27:52;;;;;;;3.30;1.70;;;;;;;;;;106908;1275;22811;-83
2023/07/16 12:30:19;;;;;;;4.00;1.90;;;;;;;;;;107071;1275;22579;-83
2023/07/16 12:32:45;;;;;;;5.50;2.10;;;;;;;;;;107085;1275;24210;-86
2023/07/16 12:35:11;;;;;;;4.30;2.00;;;;;;;;;;107255;1253;24477;-84
2023/07/16 12:37:37;;;;;;;4.80;2.00;;;;;;;;;;107180;1273;22607;-89
2023/07/16 12:40:03;;;;;;;4.00;2.10;;;;;;;;;;107154;1273;24210;-85
2023/07/16 12:42:29;;;;;;;4.60;2.10;;;;;;;;;;107256;1273;25390;-82
2023/07/16 12:44:55;;;;;;;4.80;1.90;;;;;;;;;;107129;1257;22534;-83
2023/07/16 12:47:21;;;;;;;5.40;2.50;;;;;;;;;;107087;1274;22562;-83
2023/07/16 12:49:47;;;;;;;3.60;2.00;;;;;;;;;;107121;1274;25364;-86
2023/07/16 12:52:13;;;;;;;4.10;2.00;;;;;;;;;;107172;1274;24189;-85
2023/07/16 12:54:39;;;;;;;4.10;1.90;;;;;;;;;;107046;1256;22532;-84
2023/07/16 12:57:06;;;;;;;3.70;1.80;;;;;;;;;;107220;1273;22530;-88
2023/07/16 12:59:32;;;;;;;4.50;2.10;;;;;;;;;;107244;1273;22601;-86
2023/07/16 13:01:58;;;;;;;5.10;2.20;;;;;;;;;;107233;1273;21961;-90
2023/07/16 13:04:24;;;;;;;3.80;1.90;;;;;;;;;;107243;1251;22647;-82
2023/07/16 13:06:50;;;;;;;3.60;1.90;;;;;;;;;;106977;1274;25458;-86
2023/07/16 13:09:16;;;;;;;3.60;2.00;;;;;;;;;;106975;1274;22531;-89
2023/07/16 13:11:43;;;;;;;4.70;2.20;;;;;;;;;;106964;1274;22546;-83
2023/07/16 13:14:09;;;;;;;6.20;2.20;;;;;;;;;;106977;1274;22539;-84
2023/07/16 13:16:35;;;;;;;3.90;2.10;;;;;;;;;;107189;1273;22552;-83
2023/07/16 13:19:01;;;;;;;4.30;2.10;;;;;;;;;;107235;1270;22650;-82
2023/07/16 13:21:27;;;;;;;3.40;1.90;;;;;;;;;;107070;1273;25126;-86
2023/07/16 13:23:53;;;;;;;3.70;2.10;;;;;;;;;;107251;1270;24285;-83
2023/07/16 13:26:20;;;;;;;4.80;2.40;;;;;;;;;;107217;1258;25240;-83
2023/07/16 13:28:46;;;;;;;3.50;1.90;;;;;;;;;;106980;1274;24299;-89
2023/07/16 13:31:12;;;;;;;4.00;2.30;;;;;;;;;;106925;1274;22639;-87
2023/07/16 13:33:38;;;;;;;3.20;1.80;;;;;;;;;;107125;1274;22538;-88
2023/07/16 13:36:04;;;;;;;3.90;2.00;;;;;;;;;;107160;1265;22539;-82
2023/07/16 13:38:31;;;;;;;5.10;2.20;;;;;;;;;;107275;1273;24233;-85
2023/07/16 13:40:57;;;;;;;4.00;2.00;;;;;;;;;;107190;1273;22760;-83
2023/07/16 13:43:23;;;;;;;4.60;1.70;;;;;;;;;;107234;1273;23326;-87
2023/07/16 13:45:49;;;;;;;4.30;1.80;;;;;;;;;;107115;1257;22541;-89
2023/07/16 13:48:15;;;;;;;4.20;2.20;;;;;;;;;;107145;1274;22537;-88
2023/07/16 13:50:41;;;;;;;5.40;2.20;;;;;;;;;;106914;1274;22518;-84
2023/07/16 13:53:08;;;;;;;6.40;2.10;;;;;;;;;;107134;1274;22534;-84
2023/07/16 13:55:34;;;;;;;4.20;2.00;;;;;;;;;;107177;1250;22549;-88
2023/07/16 13:58:00;;;;;;;4.20;1.70;;;;;;;;;;107202;1273;22531;-82
2023/07/16 14:00:26;;;;;;;4.00;2.00;;;;;;;;;;107195;1273;25268;-86
2023/07/16 14:02:52;;;;;;;4.40;2.00;;;;;;;;;;107127;1273;22534;-85
2023/07/16 14:05:19;;;;;;;4.70;2.00;;;;;;;;;;107238;1273;23302;-81
2023/07/16 14:07:46;;;;;;;4.50;2.00;;;;;;;;;;106922;1252;22534;-89
2023/07/16 14:10:12;;;;;;;4.30;2.20;;;;;;;;;;107026;1274;26494;-84
2023/07/16 14:12:39;;;;;;;4.50;2.20;;;;;;;;;;106931;1274;24300;-86
2023/07/16 14:15:05;;;;;;;3.90;2.00;;;;;;;;;;106994;1274;24032;-83
2023/07/16 14:17:31;;;;;;;6.20;2.10;;;;;;;;;;107198;1256;25526;-83
2023/07/16 14:19:57;;;;;;;5.30;1.90;;;;;;;;;;107281;1273;22538;-82
2023/07/16 14:22:27;;;;;;;3.40;1.80;;;;;;;;;;107253;1273;22538;-87
2023/07/16 14:24:53;;;;;;;6.60;3.00;;;;;;;;;;107214;1273;22543;-87
2023/07/16 14:27:20;;;;;;;5.70;2.70;;;;;;;;;;107139;1257;22547;-83
2023/07/16 14:29:46;;;;;;;8.70;4.00;;;;;;;;;;107117;1274;22772;-83
2023/07/16 14:32:13;;;;;;;9.60;3.70;;;;;;;;;;107114;1274;22880;-85
2023/07/16 14:34:39;;;;;;;9.20;3.30;;;;;;;;;;107116;1274;22531;-87
2023/07/16 14:37:05;;;;;;;8.60;3.50;;;;;;;;;;107031;1257;25229;-87